Patterson, Maryland
Current Conditions -  °F | °C
As of 10:54 PM on Wednesday 17 Dec 2014 (Local Time) from KBWI Reporting Station
Scattered Clouds Scattered Clouds  
Wind Chill: 30°   Ceiling: Unl
Heat Index: 36°   Visibility: 10mi
Dew Point: 24°   Wind: 7mph
Humidity: 62%   Direction: 290°WNW
Pressure: 30.03"   Gusts: NA
Location:  39.2884°N, 76.5922°W
Report Text: KBWI 180354Z 29006KT 10SM SCT042 02/M04 A3003 RMK AO2 SLP170 T00221044
Loading
Personal Weather Stations






























Interactive Weather Map New forecast layout! Learn more

10-Day Weather Forecast

Advertisements
Track Severe Weather on mobile